MMLO

Details ICAO MMLO (BJX)
Name GUANAJUATO INTL
Region Mexico
Timezone America/Mexico_City (UTC-6.0)
Plans Departing 26
Arriving 28
Stats Elevation 5,956 ft / 1,815 m (AMSL)
Location 20.993462° -101.480847°
Runways 1
Magnetic Variation 5.586° E
Sunrise 2017-12-12 13:14:59 UTC / 2017-12-12 07:14:59 Local
Sunset 2017-12-13 00:07:27 UTC / 2017-12-12 18:07:27 Local
Advertisement - Login to hide

Runways

ID Width Length Bearing (true) Bearing (mag) Surface Threshold Offset Overrun Length
13 148 ft / 45 m 11,451 ft / 3,490 m 134.09° 128.50° Asphalt 0 ft / 0 m 204 ft / 62 m
31 148 ft / 45 m 11,451 ft / 3,490 m 314.10° 308.51° Asphalt 0 ft / 0 m 204 ft / 62 m

Map

Weather


0- 5 10 15 20 25 30 35+ Temperature / ° C

Clouds and Precipitation
Forecast for 2017-12-13 06:00 UTC. Updated 20 minutes ago

Ground ~20,000 ft ~40,000 ft Winds

METAR

MMLO 130246Z 02010KT 8SM FEW120 SCT250 14/M10 A3031 RMK SLP187 52015 975 8/032

TAF

Not found

Frequencies

Recorded 128.40 MHz ATIS
Approach 119.05 MHz LEON APP
Tower 118.35 MHz LEON TWR
Warning: Do not use this data for real-world aviation or navigation. No guarantee of current accuracy is given.